Elettra — H9AK — position and weather

sailwx.info

Track history (hours):
 
Tides and Currents Weather Stations Pressure Air Temp Water Temp Dewpoint Dewpoint Depression Visibility Wind Speed Wind Dir Waves Ship Positions

Elettra

Last reported at 2017-Mar-21 15:30 UTC. Time now 2017-Mar-30 02:54 UTC.
Position S 26°49' E 153°52'.
Warning: this ship's position is 8 days out of date.

Length 254 m; draft 13.6 m.

Type: Cargo ship. MMSI: 371188000.

Date/timePositionNaut miles runAvg speedWind from/ knotsBaromVisibWave heightAir tempDewpointWater temp
2017-Mar-21 15:30S 26°49' E 153°52'1211.3
2017-Mar-21 14:24S 27°01' E 153°52'4511.5
2017-Mar-21 10:30S 27°46' E 153°52'28910.7
2017-Mar-20 07:26S 32°29' E 152°48'9 9.8
2017-Mar-20 06:33S 32°38' E 152°46'10 9.6
2017-Mar-20 05:33S 32°44' E 152°37'1110.8
2017-Mar-20 04:33S 32°49' E 152°26'1211.6
2017-Mar-20 03:33S 32°55' E 152°14'1211.6
2017-Mar-20 02:33S 32°57' E 152°00'9 8.8
2017-Mar-20 01:33S 32°56' E 151°50'4 3.6
2017-Mar-20 00:33S 32°54' E 151°46'1 0.6
2017-Mar-19 23:13S 32°53' E 151°46'0 0.0
2017-Mar-19 21:28S 32°53' E 151°46'0 0.0
2017-Mar-19 20:07S 32°53' E 151°46'0 0.0
2017-Mar-19 19:31S 32°53' E 151°46'0 0.0
2017-Mar-19 18:10S 32°53' E 151°46'0 0.0
2017-Mar-19 17:28S 32°53' E 151°46'0 0.0
2017-Mar-19 16:31S 32°53' E 151°46'0 0.0
2017-Mar-19 15:13S 32°53' E 151°46'0 0.0
2017-Mar-19 14:31S 32°53' E 151°46'0 0.0
2017-Mar-19 13:31S 32°53' E 151°46'0 0.0
2017-Mar-19 12:10S 32°53' E 151°46'0 0.0
2017-Mar-19 11:31S 32°53' E 151°46'0 0.0
2017-Mar-19 10:31S 32°53' E 151°46'0 0.0
2017-Mar-19 09:19S 32°53' E 151°46'0 0.0
2017-Mar-19 08:31S 32°53' E 151°46'0 0.0
2017-Mar-19 07:31S 32°53' E 151°46'0 0.0
2017-Mar-19 06:33S 32°53' E 151°46'0 0.0
2017-Mar-19 05:33S 32°53' E 151°46'0 0.1
2017-Mar-19 04:33S 32°53' E 151°46'6 5.8
2017-Mar-19 03:33S 32°56' E 151°52'9 9.2
2017-Mar-19 02:33S 32°57' E 152°03'1110.8
2017-Mar-19 01:33S 32°55' E 152°16'9 9.2
2017-Mar-19 00:34S 32°54' E 152°26'9 8.7
2017-Mar-18 23:33S 32°54' E 152°16'5 4.8
2017-Mar-18 22:33S 32°52' E 152°21'1 0.7
2017-Mar-18 21:33S 32°52' E 152°20'9 8.7
2017-Mar-18 20:33S 32°56' E 152°11'3 3.1
2017-Mar-18 19:33S 32°57' E 152°08'6 5.9
2017-Mar-18 18:33S 32°59' E 152°14'5 5.1
2017-Mar-18 17:34S 33°00' E 152°20'6 6.4
2017-Mar-18 16:33S 32°55' E 152°16'9 9.4
2017-Mar-18 15:33S 32°52' E 152°27'7 6.5
2017-Mar-18 14:33S 32°57' E 152°23'8 7.6
2017-Mar-18 13:33S 33°02' E 152°16'7 7.3
2017-Mar-18 12:33S 33°01' E 152°07'7 6.9
2017-Mar-18 11:33S 33°00' E 151°59'6 6.1
2017-Mar-18 10:33S 32°58' E 151°52'3 2.6
2017-Mar-18 09:33S 32°60' E 151°55'6 6.1
2017-Mar-18 08:33S 33°02' E 152°01'6 5.8
2017-Mar-18 07:33S 33°05' E 152°07'8 7.7
2017-Mar-18 06:33S 33°04' E 151°58'7 6.7
2017-Mar-18 05:33S 33°05' E 151°50'7 6.8
2017-Mar-18 04:33S 33°10' E 151°56'1111.0
2017-Mar-18 03:33S 33°20' E 152°01'11 5.7
2017-Mar-18 01:33S 33°16' E 152°14'1010.0
2017-Mar-18 00:33S 33°08' E 152°22'9 9.1
2017-Mar-17 23:33S 33°01' E 152°29'6 6.3
2017-Mar-17 22:33S 32°55' E 152°27'5 5.5
2017-Mar-17 21:33S 32°51' E 152°23'5 5.5
2017-Mar-17 20:33S 32°46' E 152°24'4 4.2
2017-Mar-17 19:33S 32°43' E 152°28'1110.5
2017-Mar-17 18:33S 32°53' E 152°24'1110.6
2017-Mar-17 17:33S 33°03' E 152°21'9 9.2
2017-Mar-17 16:33S 33°11' E 152°16'8 3.2
2017-Mar-17 14:10S 33°18' E 152°12'5 7.4
2017-Mar-17 13:33S 33°14' E 152°13'7 7.0
2017-Mar-17 12:33S 33°07' E 152°16'7 6.8
2017-Mar-17 11:33S 33°01' E 152°18'5 5.5
2017-Mar-17 10:33S 32°55' E 152°19'6 5.6
2017-Mar-17 09:33S 32°49' E 152°19'6 5.9
2017-Mar-17 08:33S 32°44' E 152°23'6 6.0
2017-Mar-17 07:33S 32°40' E 152°27'6 5.9
2017-Mar-17 06:33S 32°35' E 152°31'2 2.3
2017-Mar-17 05:33S 32°36' E 152°29'9 9.5
2017-Mar-17 04:33S 32°43' E 152°21'9 9.4
2017-Mar-17 03:33S 32°50' E 152°14'7 7.3
2017-Mar-17 02:33S 32°57' E 152°10'7 7.4
2017-Mar-17 01:33S 32°59' E 152°01'1211.8
2017-Mar-17 00:33S 33°09' E 151°53'  
2017-Mar-13 07:19S 33°09' E 151°48'1114.3
2017-Mar-13 06:33S 33°01' E 151°56'1312.6
2017-Mar-13 05:33S 32°56' E 152°10'1413.9
2017-Mar-13 04:33S 32°50' E 152°25'1514.7
2017-Mar-13 03:33S 32°43' E 152°40'1514.7
2017-Mar-13 02:33S 32°33' E 152°54'4 4.4
2017-Mar-13 01:32S 32°38' E 152°54'1913.1
2017-Mar-13 00:05S 32°19' E 152°56'2413.8
2017-Mar-12 22:19S 31°54' E 152°59'24214.3
2017-Mar-12 05:24S 27°57' E 153°52'1113.5
2017-Mar-12 04:33S 27°46' E 153°52'4013.4
2017-Mar-12 01:33S 27°05' E 153°52'1313.2
2017-Mar-12 00:33S 26°52' E 153°53'  
Track history (hours):
 
Tides and Currents Weather Stations Pressure Air Temp Water Temp Dewpoint Dewpoint Depression Visibility Wind Speed Wind Dir Waves Ship Positions

Elettra

Last reported at 2017-Mar-21 15:30 UTC. Time now 2017-Mar-30 02:54 UTC.
Position S 26°49' E 153°52'.
Warning: this ship's position is 8 days out of date.

Length 254 m; draft 13.6 m.

Type: Cargo ship. MMSI: 371188000.

Date/timePositionNaut miles runAvg speedWind from/ knotsBaromVisibWave heightAir tempDewpointWater temp
2017-Mar-21 15:30S 26°49' E 153°52'1211.3
2017-Mar-21 14:24S 27°01' E 153°52'4511.5
2017-Mar-21 10:30S 27°46' E 153°52'28910.7
2017-Mar-20 07:26S 32°29' E 152°48'9 9.8
2017-Mar-20 06:33S 32°38' E 152°46'10 9.6
2017-Mar-20 05:33S 32°44' E 152°37'1110.8
2017-Mar-20 04:33S 32°49' E 152°26'1211.6
2017-Mar-20 03:33S 32°55' E 152°14'1211.6
2017-Mar-20 02:33S 32°57' E 152°00'9 8.8
2017-Mar-20 01:33S 32°56' E 151°50'4 3.6
2017-Mar-20 00:33S 32°54' E 151°46'1 0.6
2017-Mar-19 23:13S 32°53' E 151°46'0 0.0
2017-Mar-19 21:28S 32°53' E 151°46'0 0.0
2017-Mar-19 20:07S 32°53' E 151°46'0 0.0
2017-Mar-19 19:31S 32°53' E 151°46'0 0.0
2017-Mar-19 18:10S 32°53' E 151°46'0 0.0
2017-Mar-19 17:28S 32°53' E 151°46'0 0.0
2017-Mar-19 16:31S 32°53' E 151°46'0 0.0
2017-Mar-19 15:13S 32°53' E 151°46'0 0.0
2017-Mar-19 14:31S 32°53' E 151°46'0 0.0
2017-Mar-19 13:31S 32°53' E 151°46'0 0.0
2017-Mar-19 12:10S 32°53' E 151°46'0 0.0
2017-Mar-19 11:31S 32°53' E 151°46'0 0.0
2017-Mar-19 10:31S 32°53' E 151°46'0 0.0
2017-Mar-19 09:19S 32°53' E 151°46'0 0.0
2017-Mar-19 08:31S 32°53' E 151°46'0 0.0
2017-Mar-19 07:31S 32°53' E 151°46'0 0.0
2017-Mar-19 06:33S 32°53' E 151°46'0 0.0
2017-Mar-19 05:33S 32°53' E 151°46'0 0.1
2017-Mar-19 04:33S 32°53' E 151°46'6 5.8
2017-Mar-19 03:33S 32°56' E 151°52'9 9.2
2017-Mar-19 02:33S 32°57' E 152°03'1110.8
2017-Mar-19 01:33S 32°55' E 152°16'9 9.2
2017-Mar-19 00:34S 32°54' E 152°26'9 8.7
2017-Mar-18 23:33S 32°54' E 152°16'5 4.8
2017-Mar-18 22:33S 32°52' E 152°21'1 0.7
2017-Mar-18 21:33S 32°52' E 152°20'9 8.7
2017-Mar-18 20:33S 32°56' E 152°11'3 3.1
2017-Mar-18 19:33S 32°57' E 152°08'6 5.9
2017-Mar-18 18:33S 32°59' E 152°14'5 5.1
2017-Mar-18 17:34S 33°00' E 152°20'6 6.4
2017-Mar-18 16:33S 32°55' E 152°16'9 9.4
2017-Mar-18 15:33S 32°52' E 152°27'7 6.5
2017-Mar-18 14:33S 32°57' E 152°23'8 7.6
2017-Mar-18 13:33S 33°02' E 152°16'7 7.3
2017-Mar-18 12:33S 33°01' E 152°07'7 6.9
2017-Mar-18 11:33S 33°00' E 151°59'6 6.1
2017-Mar-18 10:33S 32°58' E 151°52'3 2.6
2017-Mar-18 09:33S 32°60' E 151°55'6 6.1
2017-Mar-18 08:33S 33°02' E 152°01'6 5.8
2017-Mar-18 07:33S 33°05' E 152°07'8 7.7
2017-Mar-18 06:33S 33°04' E 151°58'7 6.7
2017-Mar-18 05:33S 33°05' E 151°50'7 6.8
2017-Mar-18 04:33S 33°10' E 151°56'1111.0
2017-Mar-18 03:33S 33°20' E 152°01'11 5.7
2017-Mar-18 01:33S 33°16' E 152°14'1010.0
2017-Mar-18 00:33S 33°08' E 152°22'9 9.1
2017-Mar-17 23:33S 33°01' E 152°29'6 6.3
2017-Mar-17 22:33S 32°55' E 152°27'5 5.5
2017-Mar-17 21:33S 32°51' E 152°23'5 5.5
2017-Mar-17 20:33S 32°46' E 152°24'4 4.2
2017-Mar-17 19:33S 32°43' E 152°28'1110.5
2017-Mar-17 18:33S 32°53' E 152°24'1110.6
2017-Mar-17 17:33S 33°03' E 152°21'9 9.2
2017-Mar-17 16:33S 33°11' E 152°16'8 3.2
2017-Mar-17 14:10S 33°18' E 152°12'5 7.4
2017-Mar-17 13:33S 33°14' E 152°13'7 7.0
2017-Mar-17 12:33S 33°07' E 152°16'7 6.8
2017-Mar-17 11:33S 33°01' E 152°18'5 5.5
2017-Mar-17 10:33S 32°55' E 152°19'6 5.6
2017-Mar-17 09:33S 32°49' E 152°19'6 5.9
2017-Mar-17 08:33S 32°44' E 152°23'6 6.0
2017-Mar-17 07:33S 32°40' E 152°27'6 5.9
2017-Mar-17 06:33S 32°35' E 152°31'2 2.3
2017-Mar-17 05:33S 32°36' E 152°29'9 9.5
2017-Mar-17 04:33S 32°43' E 152°21'9 9.4
2017-Mar-17 03:33S 32°50' E 152°14'7 7.3
2017-Mar-17 02:33S 32°57' E 152°10'7 7.4
2017-Mar-17 01:33S 32°59' E 152°01'1211.8
2017-Mar-17 00:33S 33°09' E 151°53'  
2017-Mar-13 07:19S 33°09' E 151°48'1114.3
2017-Mar-13 06:33S 33°01' E 151°56'1312.6
2017-Mar-13 05:33S 32°56' E 152°10'1413.9
2017-Mar-13 04:33S 32°50' E 152°25'1514.7
2017-Mar-13 03:33S 32°43' E 152°40'1514.7
2017-Mar-13 02:33S 32°33' E 152°54'4 4.4
2017-Mar-13 01:32S 32°38' E 152°54'1913.1
2017-Mar-13 00:05S 32°19' E 152°56'2413.8
2017-Mar-12 22:19S 31°54' E 152°59'24214.3
2017-Mar-12 05:24S 27°57' E 153°52'1113.5
2017-Mar-12 04:33S 27°46' E 153°52'4013.4
2017-Mar-12 01:33S 27°05' E 153°52'1313.2
2017-Mar-12 00:33S 26°52' E 153°53'  

Dump ship's entire track history